createdAt,value
2022-12-05T00:00:44.439Z,12.60
2022-12-05T00:01:44.437Z,11.20
2022-12-05T00:02:44.408Z,14.50
2022-12-05T00:03:44.426Z,15.30
2022-12-05T00:04:44.452Z,12.10
2022-12-05T00:05:44.339Z,11.90
2022-12-05T00:06:44.360Z,11.60
2022-12-05T00:07:44.347Z,15.70
2022-12-05T00:08:44.335Z,12.00
2022-12-05T00:09:44.304Z,16.80
2022-12-05T00:10:44.323Z,14.40
2022-12-05T00:11:44.283Z,14.60
2022-12-05T00:12:44.280Z,15.10
2022-12-05T00:13:44.308Z,14.90
2022-12-05T00:14:44.268Z,12.70
2022-12-05T00:15:44.265Z,15.30
2022-12-05T00:16:44.323Z,14.30
2022-12-05T00:17:44.246Z,15.70
2022-12-05T00:18:44.216Z,14.20
2022-12-05T00:19:44.240Z,16.50
2022-12-05T00:20:44.181Z,16.10
2022-12-05T00:21:44.186Z,15.50
2022-12-05T00:22:44.183Z,17.20
2022-12-05T00:23:44.172Z,15.60
2022-12-05T00:24:44.156Z,15.40
2022-12-05T00:25:44.167Z,16.60
2022-12-05T00:26:44.147Z,16.40
2022-12-05T00:27:44.129Z,18.40
2022-12-05T00:28:44.103Z,17.00
2022-12-05T00:29:44.137Z,14.10
2022-12-05T00:30:44.125Z,19.30
2022-12-05T00:31:44.152Z,15.90
2022-12-05T00:32:44.069Z,14.40
2022-12-05T00:33:44.119Z,16.60
2022-12-05T00:34:44.061Z,16.90
2022-12-05T00:35:44.051Z,17.90
2022-12-05T00:36:44.025Z,17.60
2022-12-05T00:37:44.047Z,19.20
2022-12-05T00:38:43.998Z,20.20
2022-12-05T00:39:44.031Z,15.40
2022-12-05T00:40:43.984Z,14.80
2022-12-05T00:41:44.000Z,17.30
2022-12-05T00:42:46.887Z,18.40
2022-12-05T00:43:43.991Z,15.90
2022-12-05T00:44:43.954Z,13.60
2022-12-05T00:45:44.039Z,16.70
2022-12-05T00:46:43.917Z,15.10
2022-12-05T00:47:43.929Z,13.70
2022-12-05T00:48:43.900Z,13.80
2022-12-05T00:49:43.920Z,18.50
2022-12-05T00:50:43.877Z,16.50
2022-12-05T00:51:43.905Z,19.10
2022-12-05T00:52:43.852Z,19.10
2022-12-05T00:53:43.869Z,14.40
2022-12-05T00:54:43.840Z,16.20
2022-12-05T00:55:43.847Z,14.40
2022-12-05T00:56:43.822Z,16.10
2022-12-05T00:57:43.884Z,15.50
2022-12-05T00:58:43.801Z,13.70
2022-12-05T00:59:43.816Z,13.90
2022-12-05T01:00:43.764Z,17.00
2022-12-05T01:01:43.825Z,17.90
2022-12-05T01:02:43.813Z,13.00
2022-12-05T01:03:43.763Z,14.30
2022-12-05T01:04:43.731Z,15.40
2022-12-05T01:05:43.734Z,16.50
2022-12-05T01:06:43.710Z,14.90
2022-12-05T01:07:43.791Z,15.80
2022-12-05T01:08:43.678Z,18.70
2022-12-05T01:09:43.716Z,16.20
2022-12-05T01:10:43.664Z,15.70
2022-12-05T01:11:43.663Z,14.10
2022-12-05T01:12:43.641Z,15.10
2022-12-05T01:13:43.655Z,15.30
2022-12-05T01:14:43.617Z,16.20
2022-12-05T01:15:43.628Z,14.80
2022-12-05T01:16:43.632Z,16.50
2022-12-05T01:17:43.616Z,17.90
2022-12-05T01:18:43.585Z,14.40
2022-12-05T01:19:43.580Z,14.80
2022-12-05T01:20:43.554Z,15.50
2022-12-05T01:21:43.591Z,13.40
2022-12-05T01:22:43.534Z,13.40
2022-12-05T01:23:43.556Z,16.10
2022-12-05T01:24:43.527Z,16.50
2022-12-05T01:25:43.521Z,15.30
2022-12-05T01:26:43.491Z,18.60
2022-12-05T01:27:43.496Z,14.60
2022-12-05T01:28:43.549Z,18.60
2022-12-05T01:29:43.508Z,20.10
2022-12-05T01:30:43.454Z,17.40
2022-12-05T01:31:43.545Z,13.50
2022-12-05T01:32:43.428Z,16.60
2022-12-05T01:33:43.458Z,17.20
2022-12-05T01:34:43.410Z,14.00
2022-12-05T01:35:43.438Z,16.70
2022-12-05T01:36:43.399Z,17.00
2022-12-05T01:37:43.399Z,15.60
2022-12-05T01:38:43.367Z,15.50
2022-12-05T01:39:43.398Z,16.00
2022-12-05T01:40:43.346Z,19.60
2022-12-05T01:41:43.368Z,17.50
2022-12-05T01:42:43.325Z,15.90
2022-12-05T01:43:43.329Z,15.10
2022-12-05T01:44:43.306Z,16.40
2022-12-05T01:45:43.400Z,16.00
2022-12-05T01:46:43.291Z,15.30
2022-12-05T01:47:43.287Z,17.80
2022-12-05T01:48:43.275Z,15.70
2022-12-05T01:49:43.278Z,16.50
2022-12-05T01:50:43.246Z,14.80
2022-12-05T01:51:43.287Z,17.50
2022-12-05T01:52:43.220Z,20.70
2022-12-05T01:53:43.222Z,16.90
2022-12-05T01:54:43.202Z,15.60
2022-12-05T01:55:43.203Z,20.30
2022-12-05T01:56:43.198Z,16.00
2022-12-05T01:57:44.977Z,16.70
2022-12-05T01:58:43.157Z,16.30
2022-12-05T01:59:43.183Z,16.70
2022-12-05T02:00:43.134Z,16.20
2022-12-05T02:01:43.177Z,18.60
2022-12-05T02:02:43.221Z,17.00
2022-12-05T02:03:43.127Z,16.60
2022-12-05T02:04:43.095Z,13.80
2022-12-05T02:05:43.101Z,15.10
2022-12-05T02:06:43.094Z,17.50
2022-12-05T02:07:43.157Z,21.30
2022-12-05T02:08:43.071Z,22.20
2022-12-05T02:09:43.073Z,20.50
2022-12-05T02:10:43.030Z,23.50
2022-12-05T02:11:43.037Z,21.50
2022-12-05T02:12:43.031Z,18.20
2022-12-05T02:13:43.032Z,19.80
2022-12-05T02:14:42.999Z,17.80
2022-12-05T02:15:43.015Z,19.40
2022-12-05T02:16:43.035Z,17.90
2022-12-05T02:17:42.976Z,23.10
2022-12-05T02:18:42.961Z,18.60
2022-12-05T02:19:42.952Z,22.30
2022-12-05T02:20:42.936Z,18.70
2022-12-05T02:21:42.929Z,17.20
2022-12-05T02:22:42.907Z,19.10
2022-12-05T02:23:42.935Z,18.30
2022-12-05T02:24:42.899Z,17.00
2022-12-05T02:25:42.909Z,18.90
2022-12-05T02:26:42.876Z,22.30
2022-12-05T02:27:42.870Z,18.40
2022-12-05T02:28:42.839Z,16.00
2022-12-05T02:29:42.860Z,18.00
2022-12-05T02:30:42.819Z,19.30
2022-12-05T02:31:42.911Z,18.10
2022-12-05T02:32:42.811Z,14.40
2022-12-05T02:33:42.804Z,18.40
2022-12-05T02:34:42.781Z,20.10
2022-12-05T02:35:42.802Z,18.60
2022-12-05T02:36:42.763Z,17.20
2022-12-05T02:37:42.780Z,20.20
2022-12-05T02:38:42.741Z,16.50
2022-12-05T02:39:42.752Z,21.70
2022-12-05T02:40:42.728Z,19.40
2022-12-05T02:41:42.732Z,20.30
2022-12-05T02:42:42.707Z,22.80
2022-12-05T02:43:42.714Z,16.00
2022-12-05T02:44:42.675Z,15.50
2022-12-05T02:45:42.713Z,19.30
2022-12-05T02:46:42.669Z,19.30
2022-12-05T02:47:42.662Z,18.60
2022-12-05T02:48:42.630Z,18.90
2022-12-05T02:49:42.637Z,20.70
2022-12-05T02:50:42.607Z,19.00
2022-12-05T02:51:42.630Z,22.00
2022-12-05T02:52:42.606Z,18.30
2022-12-05T02:53:42.609Z,16.30
2022-12-05T02:54:42.587Z,22.60
2022-12-05T02:55:42.582Z,17.30
2022-12-05T02:56:42.549Z,16.40
2022-12-05T02:57:42.567Z,17.00
2022-12-05T02:58:42.577Z,20.20
2022-12-05T02:59:42.552Z,16.30
2022-12-05T03:00:42.519Z,16.80
2022-12-05T03:01:42.584Z,17.70
2022-12-05T03:02:42.487Z,18.60
2022-12-05T03:03:42.498Z,17.80
2022-12-05T03:04:42.568Z,18.60
2022-12-05T03:05:42.490Z,16.40
2022-12-05T03:06:42.455Z,16.70
2022-12-05T03:07:42.475Z,15.10
2022-12-05T03:08:42.428Z,19.90
2022-12-05T03:09:42.432Z,18.70
2022-12-05T03:10:42.408Z,18.40
2022-12-05T03:11:42.430Z,12.30
2022-12-05T03:12:42.420Z,16.50
2022-12-05T03:13:42.390Z,15.10
2022-12-05T03:14:42.365Z,16.20
2022-12-05T03:15:42.369Z,15.00
2022-12-05T03:16:42.404Z,16.30
2022-12-05T03:17:42.346Z,19.00
2022-12-05T03:18:42.323Z,17.00
2022-12-05T03:19:42.336Z,15.00
2022-12-05T03:20:42.295Z,15.60
2022-12-05T03:21:42.301Z,18.60
2022-12-05T03:22:42.295Z,13.80
2022-12-05T03:23:42.278Z,20.00
2022-12-05T03:24:42.261Z,16.20
2022-12-05T03:25:42.287Z,18.40
2022-12-05T03:26:42.235Z,14.90
2022-12-05T03:27:42.252Z,13.20
2022-12-05T03:28:42.225Z,16.10
2022-12-05T03:29:42.218Z,15.30
2022-12-05T03:30:42.349Z,17.40
2022-12-05T03:31:42.204Z,16.10
2022-12-05T03:32:42.170Z,17.00
2022-12-05T03:33:42.220Z,19.40
2022-12-05T03:34:42.151Z,17.50
2022-12-05T03:35:42.153Z,16.80
2022-12-05T03:36:42.131Z,17.50
2022-12-05T03:37:42.153Z,15.30
2022-12-05T03:38:42.106Z,17.70
2022-12-05T03:39:42.146Z,14.90
2022-12-05T03:40:42.110Z,15.30
2022-12-05T03:41:42.097Z,17.10
2022-12-05T03:42:42.070Z,14.50
2022-12-05T03:43:42.080Z,14.80
2022-12-05T03:44:42.055Z,15.50
2022-12-05T03:45:42.131Z,15.90
2022-12-05T03:46:42.034Z,15.10
2022-12-05T03:47:42.046Z,14.30
2022-12-05T03:48:42.010Z,15.40
2022-12-05T03:49:42.030Z,15.90
2022-12-05T03:50:41.983Z,13.30
2022-12-05T03:51:41.992Z,16.90
2022-12-05T03:53:17.453Z,14.90
2022-12-05T03:53:41.987Z,15.70
2022-12-05T03:54:41.943Z,15.10
2022-12-05T03:55:41.972Z,12.90
2022-12-05T03:56:41.922Z,14.40
2022-12-05T03:57:41.923Z,13.70
2022-12-05T03:58:41.921Z,14.00
2022-12-05T03:59:41.907Z,14.40
2022-12-05T04:00:41.890Z,12.60
2022-12-05T04:01:41.958Z,14.80
2022-12-05T04:02:41.856Z,14.20
2022-12-05T04:03:41.957Z,12.10
2022-12-05T04:04:41.837Z,15.50
2022-12-05T04:05:41.851Z,15.30
2022-12-05T04:06:41.827Z,14.10
2022-12-05T04:07:41.872Z,12.90
2022-12-05T04:08:41.806Z,14.10
2022-12-05T04:09:41.818Z,12.50
2022-12-05T04:10:41.773Z,15.90
2022-12-05T04:11:41.801Z,11.40
2022-12-05T04:12:41.757Z,16.20
2022-12-05T04:13:41.771Z,11.20
2022-12-05T04:14:41.736Z,13.30
2022-12-05T04:15:41.831Z,14.30
2022-12-05T04:16:41.733Z,14.30
2022-12-05T04:17:41.732Z,14.90
2022-12-05T04:18:41.688Z,16.80
2022-12-05T04:19:41.710Z,15.50
2022-12-05T04:20:41.675Z,16.10
2022-12-05T04:21:41.674Z,13.90
2022-12-05T04:22:41.656Z,11.20
2022-12-05T04:23:47.598Z,11.70
2022-12-05T04:24:41.641Z,17.40
2022-12-05T04:25:41.645Z,13.70
2022-12-05T04:26:41.610Z,11.30
2022-12-05T04:27:41.645Z,9.00
2022-12-05T04:28:41.600Z,12.80
2022-12-05T04:29:41.575Z,11.00
2022-12-05T04:30:41.615Z,12.50
2022-12-05T04:31:41.595Z,11.40
2022-12-05T04:32:41.587Z,10.70
2022-12-05T04:33:41.535Z,10.90
2022-12-05T04:34:41.541Z,11.10
2022-12-05T04:35:41.520Z,10.80
2022-12-05T04:36:41.544Z,11.70
2022-12-05T04:37:41.492Z,9.20
2022-12-05T04:38:41.524Z,9.60
2022-12-05T04:39:41.497Z,10.80
2022-12-05T04:40:41.497Z,12.20
2022-12-05T04:41:41.451Z,10.40
2022-12-05T04:42:41.467Z,11.10
2022-12-05T04:43:41.444Z,9.10
2022-12-05T04:44:41.434Z,13.00
2022-12-05T04:45:41.432Z,7.60
2022-12-05T04:46:41.513Z,9.20
2022-12-05T04:47:41.388Z,10.90
2022-12-05T04:48:41.412Z,8.70
2022-12-05T04:49:41.367Z,8.90
2022-12-05T04:50:41.388Z,9.10
2022-12-05T04:51:41.349Z,8.60
2022-12-05T04:52:41.368Z,9.40
2022-12-05T04:53:41.328Z,10.60
2022-12-05T04:54:41.358Z,7.40
2022-12-05T04:55:41.304Z,8.50
2022-12-05T04:56:41.334Z,7.90
2022-12-05T04:57:41.283Z,9.30
2022-12-05T04:58:41.310Z,9.20
2022-12-05T04:59:41.262Z,7.10
2022-12-05T05:00:41.284Z,9.40
2022-12-05T05:01:41.316Z,10.20
2022-12-05T05:02:41.320Z,9.30
2022-12-05T05:03:41.220Z,9.20
2022-12-05T05:04:41.238Z,8.70
2022-12-05T05:05:41.224Z,10.10
2022-12-05T05:06:41.227Z,9.20
2022-12-05T05:07:41.193Z,8.70
2022-12-05T05:08:41.197Z,10.10
2022-12-05T05:09:41.174Z,9.10
2022-12-05T05:10:41.176Z,7.50
2022-12-05T05:11:41.149Z,12.60
2022-12-05T05:12:41.148Z,9.00
2022-12-05T05:13:41.118Z,9.70
2022-12-05T05:14:41.121Z,7.30
2022-12-05T05:15:41.135Z,7.10
2022-12-05T05:16:41.125Z,6.50
2022-12-05T05:17:41.093Z,8.00
2022-12-05T05:18:41.101Z,7.60
2022-12-05T05:19:41.052Z,8.10
2022-12-05T05:20:41.079Z,7.40
2022-12-05T05:21:41.036Z,6.20
2022-12-05T05:22:41.100Z,8.10
2022-12-05T05:23:41.022Z,8.60
2022-12-05T05:24:41.039Z,7.20
2022-12-05T05:25:40.991Z,7.40
2022-12-05T05:26:41.021Z,6.50
2022-12-05T05:27:40.978Z,8.80
2022-12-05T05:28:40.993Z,7.00
2022-12-05T05:29:40.953Z,7.60
2022-12-05T05:30:40.954Z,7.20
2022-12-05T05:31:41.029Z,6.60
2022-12-05T05:32:40.939Z,6.60
2022-12-05T05:33:40.909Z,6.90
2022-12-05T05:34:40.923Z,6.90
2022-12-05T05:35:40.889Z,7.00
2022-12-05T05:36:40.910Z,6.80
2022-12-05T05:37:40.877Z,8.20
2022-12-05T05:38:40.892Z,9.50
2022-12-05T05:39:40.854Z,6.90
2022-12-05T05:40:40.870Z,6.20
2022-12-05T05:41:40.831Z,4.80
2022-12-05T05:42:40.848Z,6.90
2022-12-05T05:43:40.810Z,6.60
2022-12-05T05:44:40.831Z,6.60
2022-12-05T05:45:40.801Z,4.90
2022-12-05T05:46:40.935Z,5.00
2022-12-05T05:47:40.773Z,7.80
2022-12-05T05:48:40.800Z,4.40
2022-12-05T05:49:40.798Z,6.50
2022-12-05T05:50:40.766Z,7.30
2022-12-05T05:51:40.755Z,6.70
2022-12-05T05:52:40.795Z,7.10
2022-12-05T05:53:40.705Z,5.20
2022-12-05T05:54:40.719Z,6.20
2022-12-05T05:55:40.703Z,6.30
2022-12-05T05:56:40.716Z,6.60
2022-12-05T05:57:40.701Z,5.10
2022-12-05T05:58:40.708Z,5.70
2022-12-05T05:59:39.649Z,5.60
2022-12-05T06:00:40.692Z,7.10
2022-12-05T06:01:40.638Z,7.10
2022-12-05T06:02:40.850Z,6.50
2022-12-05T06:03:40.839Z,7.60
2022-12-05T06:04:40.649Z,7.00
2022-12-05T06:05:40.593Z,6.60
2022-12-05T06:06:40.611Z,6.30
2022-12-05T06:07:40.656Z,7.00
2022-12-05T06:08:40.655Z,7.40
2022-12-05T06:09:40.556Z,6.00
2022-12-05T06:10:40.553Z,7.40
2022-12-05T06:11:40.538Z,7.90
2022-12-05T06:12:40.558Z,7.00
2022-12-05T06:13:40.515Z,6.30
2022-12-05T06:14:40.554Z,7.80
2022-12-05T06:15:40.499Z,6.50
2022-12-05T06:16:39.534Z,8.70
2022-12-05T06:17:40.506Z,9.10
2022-12-05T06:18:40.534Z,6.80
2022-12-05T06:19:40.459Z,7.20
2022-12-05T06:20:40.479Z,8.80
2022-12-05T06:21:40.458Z,9.90
2022-12-05T06:22:40.442Z,6.50
2022-12-05T06:23:40.414Z,8.00
2022-12-05T06:24:40.451Z,8.80
2022-12-05T06:25:40.395Z,8.10
2022-12-05T06:26:40.431Z,8.90
2022-12-05T06:27:40.383Z,7.80
2022-12-05T06:28:40.363Z,9.80
2022-12-05T06:29:40.382Z,8.70
2022-12-05T06:30:40.362Z,9.20
2022-12-05T06:31:40.338Z,8.80
2022-12-05T06:32:40.395Z,9.40
2022-12-05T06:33:40.318Z,8.70
2022-12-05T06:34:40.318Z,8.30
2022-12-05T06:35:40.247Z,7.40
2022-12-05T06:36:40.274Z,7.60
2022-12-05T06:37:40.309Z,7.40
2022-12-05T06:38:42.321Z,8.10
2022-12-05T06:39:40.259Z,7.90
2022-12-05T06:40:40.248Z,10.40
2022-12-05T06:41:40.185Z,7.40
2022-12-05T06:42:40.249Z,10.40
2022-12-05T06:43:40.210Z,6.70
2022-12-05T06:44:40.175Z,7.90
2022-12-05T06:45:40.247Z,9.20
2022-12-05T06:46:40.210Z,8.40
2022-12-05T06:47:40.153Z,11.90
2022-12-05T06:48:40.160Z,9.20
2022-12-05T06:49:40.089Z,8.80
2022-12-05T06:50:40.099Z,9.50
2022-12-05T06:51:40.075Z,9.60
2022-12-05T06:52:40.085Z,8.70
2022-12-05T06:53:40.085Z,8.40
2022-12-05T06:54:40.082Z,10.40
2022-12-05T06:55:40.031Z,9.30
2022-12-05T06:56:40.059Z,10.50
2022-12-05T06:57:40.012Z,11.70
2022-12-05T06:58:40.021Z,8.00
2022-12-05T06:59:40.010Z,9.50
2022-12-05T07:00:40.092Z,9.60
2022-12-05T07:01:40.016Z,10.70
2022-12-05T07:02:40.023Z,8.40
2022-12-05T07:03:39.941Z,9.50
2022-12-05T07:04:40.017Z,9.20
2022-12-05T07:05:39.976Z,9.10
2022-12-05T07:06:39.960Z,8.80
2022-12-05T07:07:39.964Z,10.40
2022-12-05T07:08:39.935Z,8.70
2022-12-05T07:09:39.976Z,11.60
2022-12-05T07:10:39.898Z,10.70
2022-12-05T07:11:38.864Z,10.00
2022-12-05T07:12:39.977Z,12.20
2022-12-05T07:13:39.890Z,10.10
2022-12-05T07:14:47.681Z,10.90
2022-12-05T07:15:39.924Z,9.50
2022-12-05T07:16:39.886Z,11.90
2022-12-05T07:17:39.979Z,9.70
2022-12-05T07:18:39.822Z,14.70
2022-12-05T07:19:39.777Z,11.70
2022-12-05T07:21:10.262Z,10.00
2022-12-05T07:21:39.776Z,14.80
2022-12-05T07:22:39.778Z,13.50
2022-12-05T07:23:39.785Z,14.00
2022-12-05T07:24:39.763Z,15.50
2022-12-05T07:25:39.798Z,18.10
2022-12-05T07:26:39.785Z,12.60
2022-12-05T07:27:39.693Z,12.80
2022-12-05T07:28:39.731Z,16.90
2022-12-05T07:29:39.728Z,15.10
2022-12-05T07:30:39.665Z,14.70
2022-12-05T07:31:39.760Z,12.80
2022-12-05T07:32:39.669Z,15.30
2022-12-05T07:33:38.647Z,13.60
2022-12-05T07:34:39.675Z,13.40
2022-12-05T07:35:39.657Z,16.40
2022-12-05T07:36:39.647Z,17.00
2022-12-05T07:37:39.610Z,13.50
2022-12-05T07:38:39.647Z,13.30
2022-12-05T07:39:39.600Z,17.20
2022-12-05T07:40:39.590Z,14.60
2022-12-05T07:41:39.605Z,15.60
2022-12-05T07:42:39.578Z,13.90
2022-12-05T07:43:39.553Z,14.60
2022-12-05T07:44:39.573Z,11.50
2022-12-05T07:45:39.542Z,13.60
2022-12-05T07:46:39.515Z,13.30
2022-12-05T07:47:39.584Z,16.10
2022-12-05T07:48:39.513Z,15.20
2022-12-05T07:49:39.462Z,16.90
2022-12-05T07:50:39.500Z,12.80
2022-12-05T07:51:39.491Z,15.80
2022-12-05T07:52:39.484Z,12.10
2022-12-05T07:53:39.437Z,13.30
2022-12-05T07:54:39.420Z,10.70
2022-12-05T07:55:39.418Z,16.70
2022-12-05T07:56:43.361Z,14.00
2022-12-05T07:57:39.412Z,16.20
2022-12-05T07:58:39.425Z,17.40
2022-12-05T07:59:39.383Z,12.90
2022-12-05T08:00:39.425Z,17.30
2022-12-05T08:01:39.489Z,16.80
2022-12-05T08:02:40.929Z,19.00
2022-12-05T08:03:39.335Z,15.80
2022-12-05T08:04:39.350Z,14.70
2022-12-05T08:05:39.322Z,13.10
2022-12-05T08:06:39.346Z,12.60
2022-12-05T08:07:38.363Z,17.60
2022-12-05T08:08:39.300Z,13.50
2022-12-05T08:09:39.535Z,12.70
2022-12-05T08:10:39.280Z,13.30
2022-12-05T08:11:39.302Z,14.70
2022-12-05T08:12:39.259Z,11.70
2022-12-05T08:13:39.219Z,14.90
2022-12-05T08:14:39.245Z,14.10
2022-12-05T08:15:39.231Z,17.80
2022-12-05T08:16:39.262Z,13.40
2022-12-05T08:17:39.190Z,14.30
2022-12-05T08:18:39.212Z,15.00
2022-12-05T08:19:39.170Z,13.90
2022-12-05T08:20:39.170Z,17.90
2022-12-05T08:21:39.178Z,13.60
2022-12-05T08:22:39.170Z,18.10
2022-12-05T08:23:39.110Z,15.90
2022-12-05T08:24:39.164Z,13.60
2022-12-05T08:25:39.103Z,18.50
2022-12-05T08:26:39.102Z,14.50
2022-12-05T08:27:39.066Z,12.20
2022-12-05T08:28:39.093Z,16.30
2022-12-05T08:29:39.042Z,14.20
2022-12-05T08:30:39.112Z,12.80
2022-12-05T08:31:39.026Z,15.30
2022-12-05T08:32:39.031Z,14.40
2022-12-05T08:33:38.999Z,12.60
2022-12-05T08:34:39.018Z,11.40
2022-12-05T08:35:38.994Z,13.30
2022-12-05T08:36:38.995Z,13.90
2022-12-05T08:37:38.959Z,15.50
2022-12-05T08:38:38.964Z,13.20
2022-12-05T08:39:39.120Z,13.30
2022-12-05T08:40:38.944Z,9.90
2022-12-05T08:41:38.929Z,15.00
2022-12-05T08:42:38.970Z,13.40
2022-12-05T08:43:38.896Z,11.90
2022-12-05T08:44:38.898Z,16.60
2022-12-05T08:45:38.890Z,14.70
2022-12-05T08:46:38.976Z,13.60
2022-12-05T08:47:38.894Z,16.70
2022-12-05T08:48:38.860Z,15.80
2022-12-05T08:49:38.914Z,13.70
2022-12-05T08:50:38.833Z,12.90
2022-12-05T08:51:38.838Z,17.10
2022-12-05T08:52:38.809Z,15.80
2022-12-05T08:53:44.111Z,16.10
2022-12-05T08:54:39.029Z,10.70
2022-12-05T08:55:38.804Z,13.40
2022-12-05T08:56:38.777Z,11.10
2022-12-05T08:57:38.769Z,15.90
2022-12-05T08:58:38.761Z,15.40
2022-12-05T08:59:38.789Z,15.60
2022-12-05T09:00:38.745Z,15.00
2022-12-05T09:01:39.290Z,15.10
2022-12-05T09:02:38.787Z,11.30
2022-12-05T09:03:41.078Z,12.50
2022-12-05T09:04:38.692Z,11.60
2022-12-05T09:05:38.825Z,11.20
2022-12-05T09:06:38.739Z,15.80
2022-12-05T09:07:38.795Z,12.40
2022-12-05T09:08:38.677Z,15.20
2022-12-05T09:09:38.656Z,12.70
2022-12-05T09:10:38.713Z,12.20
2022-12-05T09:11:38.767Z,11.50
2022-12-05T09:12:38.663Z,12.70
2022-12-05T09:13:38.622Z,14.00
2022-12-05T09:14:38.641Z,14.40
2022-12-05T09:15:38.756Z,13.40
2022-12-05T09:16:39.403Z,14.90
2022-12-05T09:17:38.644Z,12.60
2022-12-05T09:18:38.630Z,12.90
2022-12-05T09:19:38.615Z,13.70
2022-12-05T09:20:38.585Z,14.20
2022-12-05T09:21:37.659Z,13.70
2022-12-05T09:22:38.566Z,17.10
2022-12-05T09:23:38.586Z,15.00
2022-12-05T09:24:38.558Z,18.10
2022-12-05T09:25:38.542Z,11.20
2022-12-05T09:26:38.583Z,13.60
2022-12-05T09:27:38.608Z,18.50
2022-12-05T09:28:38.545Z,13.40
2022-12-05T09:29:38.528Z,15.70
2022-12-05T09:30:38.529Z,13.80
2022-12-05T09:31:38.697Z,14.10
2022-12-05T09:32:38.503Z,18.50
2022-12-05T09:33:38.464Z,14.80
2022-12-05T09:34:38.459Z,14.90
2022-12-05T09:35:38.447Z,13.00
2022-12-05T09:36:38.478Z,12.10
2022-12-05T09:37:39.918Z,14.80
2022-12-05T09:38:38.395Z,14.80
2022-12-05T09:39:37.423Z,15.70
2022-12-05T09:40:38.394Z,14.10
2022-12-05T09:41:38.387Z,14.60
2022-12-05T09:42:38.430Z,12.30
2022-12-05T09:43:38.386Z,13.90
2022-12-05T09:44:38.418Z,15.50
2022-12-05T09:45:38.363Z,13.80
2022-12-05T09:46:38.311Z,19.50
2022-12-05T09:47:38.388Z,15.50
2022-12-05T09:48:38.303Z,14.90
2022-12-05T09:49:38.333Z,13.10
2022-12-05T09:50:38.351Z,12.40
2022-12-05T09:51:38.297Z,10.40
2022-12-05T09:52:38.285Z,12.10
2022-12-05T09:53:38.289Z,11.00
2022-12-05T09:54:38.285Z,15.90
2022-12-05T09:55:38.296Z,13.80
2022-12-05T09:56:37.218Z,15.10
2022-12-05T09:57:38.235Z,15.50
2022-12-05T09:58:38.211Z,14.20
2022-12-05T09:59:38.262Z,13.20
2022-12-05T10:00:38.222Z,13.00
2022-12-05T10:01:38.347Z,17.00
2022-12-05T10:02:38.166Z,13.20
2022-12-05T10:03:38.190Z,16.60
2022-12-05T10:04:38.197Z,12.20
2022-12-05T10:05:38.193Z,14.00
2022-12-05T10:06:38.120Z,13.70
2022-12-05T10:07:38.257Z,11.60
2022-12-05T10:08:38.119Z,11.40
2022-12-05T10:09:38.163Z,12.50
2022-12-05T10:10:38.099Z,13.40
2022-12-05T10:11:38.080Z,13.20
2022-12-05T10:12:37.123Z,10.50
2022-12-05T10:13:38.079Z,12.60
2022-12-05T10:14:37.998Z,16.60
2022-12-05T10:15:38.053Z,12.60
2022-12-05T10:16:37.975Z,16.40
2022-12-05T10:17:37.969Z,15.60
2022-12-05T10:18:37.930Z,15.20
2022-12-05T10:19:37.917Z,13.50
2022-12-05T10:20:37.914Z,12.70
2022-12-05T10:21:37.911Z,10.60
2022-12-05T10:22:37.878Z,11.30
2022-12-05T10:24:36.846Z,17.80
2022-12-05T10:25:37.867Z,10.80
2022-12-05T10:26:37.873Z,15.30
2022-12-05T10:27:40.351Z,13.60
2022-12-05T10:28:37.871Z,13.90
2022-12-05T10:29:37.840Z,14.50
2022-12-05T10:30:37.790Z,16.10
2022-12-05T10:31:37.895Z,13.30
2022-12-05T10:32:37.775Z,15.90
2022-12-05T10:33:37.795Z,12.20
2022-12-05T10:34:37.769Z,12.90
2022-12-05T10:35:37.760Z,16.60
2022-12-05T10:36:37.738Z,11.80
2022-12-05T10:37:37.744Z,14.10
2022-12-05T10:38:37.714Z,16.20
2022-12-05T10:39:37.732Z,13.60
2022-12-05T10:40:37.711Z,14.00
2022-12-05T10:41:37.703Z,11.80
2022-12-05T10:42:37.663Z,14.40
2022-12-05T10:43:37.683Z,12.50
2022-12-05T10:44:37.643Z,15.40
2022-12-05T10:45:37.683Z,15.40
2022-12-05T10:46:37.714Z,15.30
2022-12-05T10:47:37.644Z,14.60
2022-12-05T10:48:37.604Z,15.80
2022-12-05T10:49:37.630Z,12.60
2022-12-05T10:50:37.589Z,12.90
2022-12-05T10:51:37.923Z,13.00
2022-12-05T10:52:37.579Z,11.20
2022-12-05T10:53:37.584Z,11.60
2022-12-05T10:54:37.549Z,15.30
2022-12-05T10:55:37.558Z,14.20
2022-12-05T10:56:37.517Z,16.20
2022-12-05T10:57:37.537Z,14.50
2022-12-05T10:58:37.506Z,13.30
2022-12-05T10:59:37.521Z,12.90
2022-12-05T11:00:37.492Z,12.30
2022-12-05T11:01:37.509Z,14.80
2022-12-05T11:02:37.456Z,14.30
2022-12-05T11:03:37.515Z,13.90
2022-12-05T11:04:37.478Z,10.20
2022-12-05T11:05:37.509Z,12.40
2022-12-05T11:06:37.414Z,14.50
2022-12-05T11:07:37.501Z,10.80
2022-12-05T11:09:03.226Z,12.60
2022-12-05T11:09:37.399Z,13.90
2022-12-05T11:10:37.377Z,11.40
2022-12-05T11:11:37.397Z,13.20
2022-12-05T11:12:37.352Z,12.40
2022-12-05T11:13:37.352Z,16.90
2022-12-05T11:14:37.332Z,12.70
2022-12-05T11:15:37.354Z,15.50
2022-12-05T11:16:37.357Z,9.80
2022-12-05T11:17:37.350Z,14.80
2022-12-05T11:18:37.293Z,13.80
2022-12-05T11:19:37.293Z,14.30
2022-12-05T11:20:37.267Z,12.50
2022-12-05T11:21:37.295Z,12.80
2022-12-05T11:22:37.270Z,16.40
2022-12-05T11:23:37.262Z,15.30
2022-12-05T11:24:37.224Z,14.30
2022-12-05T11:25:37.251Z,15.40
2022-12-05T11:26:37.215Z,17.20
2022-12-05T11:27:37.240Z,13.50
2022-12-05T11:28:37.198Z,15.10
2022-12-05T11:29:37.194Z,14.50
2022-12-05T11:30:37.164Z,12.70
2022-12-05T11:31:37.224Z,16.60
2022-12-05T11:32:37.148Z,12.80
2022-12-05T11:33:37.158Z,12.60
2022-12-05T11:34:37.132Z,17.80
2022-12-05T11:35:37.146Z,15.30
2022-12-05T11:36:37.105Z,15.80
2022-12-05T11:37:37.126Z,16.30
2022-12-05T11:38:37.093Z,14.40
2022-12-05T11:39:37.117Z,13.20
2022-12-05T11:40:38.867Z,15.60
2022-12-05T11:41:37.072Z,15.20
2022-12-05T11:42:37.044Z,17.90
2022-12-05T11:43:37.039Z,17.30
2022-12-05T11:44:37.033Z,15.20
2022-12-05T11:45:37.056Z,14.50
2022-12-05T11:46:37.032Z,17.90
2022-12-05T11:47:37.018Z,10.40
2022-12-05T11:48:37.044Z,12.70
2022-12-05T11:49:37.060Z,15.40
2022-12-05T11:50:37.036Z,13.80
2022-12-05T11:51:37.075Z,13.80
2022-12-05T11:52:40.593Z,15.90
2022-12-05T11:53:37.054Z,15.60
2022-12-05T11:55:03.774Z,15.50
2022-12-05T11:55:36.988Z,16.50
2022-12-05T11:56:37.029Z,11.30
2022-12-05T11:57:36.986Z,16.20
2022-12-05T11:58:36.945Z,14.00
2022-12-05T11:59:36.959Z,14.00
2022-12-05T12:00:36.952Z,12.40
2022-12-05T12:01:37.030Z,13.30
2022-12-05T12:02:37.070Z,13.10
2022-12-05T12:03:36.985Z,11.70
2022-12-05T12:04:36.913Z,13.70
2022-12-05T12:05:36.897Z,18.10
2022-12-05T12:06:36.911Z,13.00
2022-12-05T12:07:36.898Z,14.40
2022-12-05T12:08:36.888Z,11.60
2022-12-05T12:09:36.857Z,13.80
2022-12-05T12:10:36.801Z,14.20
2022-12-05T12:11:36.805Z,13.20
2022-12-05T12:12:36.865Z,14.20
2022-12-05T12:13:36.802Z,12.50
2022-12-05T12:14:36.777Z,13.30
2022-12-05T12:15:35.795Z,14.30
2022-12-05T12:16:36.858Z,15.30
2022-12-05T12:17:36.784Z,14.90
2022-12-05T12:18:36.795Z,13.60
2022-12-05T12:19:36.740Z,14.20
2022-12-05T12:20:36.724Z,13.20
2022-12-05T12:21:38.790Z,12.60
2022-12-05T12:22:36.698Z,14.10
2022-12-05T12:23:36.760Z,13.20
2022-12-05T12:24:36.709Z,12.40
2022-12-05T12:25:36.689Z,14.20
2022-12-05T12:26:36.596Z,13.90
2022-12-05T12:27:36.580Z,15.20
2022-12-05T12:28:36.567Z,14.30
2022-12-05T12:29:36.841Z,11.70
2022-12-05T12:30:36.540Z,17.70
2022-12-05T12:31:36.605Z,15.20
2022-12-05T12:32:36.513Z,15.80
2022-12-05T12:33:36.535Z,12.70
2022-12-05T12:34:36.676Z,13.50
2022-12-05T12:35:36.523Z,14.00
2022-12-05T12:36:36.550Z,15.00
2022-12-05T12:37:36.488Z,12.40
2022-12-05T12:38:36.452Z,14.20
2022-12-05T12:39:36.483Z,12.40
2022-12-05T12:40:36.458Z,13.00
2022-12-05T12:41:36.452Z,19.30
2022-12-05T12:42:36.408Z,17.90
2022-12-05T12:44:35.381Z,17.70
2022-12-05T12:45:36.475Z,27.90
2022-12-05T12:46:36.467Z,18.90
2022-12-05T12:47:36.376Z,14.10
2022-12-05T12:48:36.354Z,15.10
2022-12-05T12:49:36.362Z,16.50
2022-12-05T12:50:41.880Z,13.50
2022-12-05T12:51:36.393Z,15.10
2022-12-05T12:52:36.320Z,18.80
2022-12-05T12:53:36.328Z,17.00
2022-12-05T12:55:02.395Z,13.30
2022-12-05T12:55:36.302Z,12.70
2022-12-05T12:56:36.270Z,13.40
2022-12-05T12:57:36.273Z,14.70
2022-12-05T12:58:36.254Z,13.50
2022-12-05T12:59:36.262Z,14.20